Time;durP1;ratioP1;P1;durP2;ratioP2;P2;SDS_P1;SDS_P2;PMS_P1;PMS_P2;Temp;Humidity;BMP_temperature;BMP_pressure;BME280_temperature;BME280_humidity;BME280_pressure;Samples;Min_cycle;Max_cycle;Signal;HPM_P1;HPM_P2
2021/07/19 00:01:39;;;;;;;8.93;5.00;;;;;;;19.35;66.94;102267.09;4817251;29;20062;-37
2021/07/19 00:04:06;;;;;;;13.75;5.40;;;;;;;19.32;67.07;102262.91;4813427;29;20142;-37
2021/07/19 00:06:32;;;;;;;11.25;4.90;;;;;;;19.27;67.30;102259.94;4816917;29;20077;-37
2021/07/19 00:08:59;;;;;;;10.15;5.53;;;;;;;19.22;67.69;102259.63;4811246;29;20105;-37
2021/07/19 00:11:25;;;;;;;11.73;5.53;;;;;;;19.18;67.52;102258.28;4803774;29;20141;-37
2021/07/19 00:13:52;;;;;;;11.77;4.90;;;;;;;19.14;67.90;102257.78;4812889;29;20485;-37
2021/07/19 00:16:18;;;;;;;9.70;5.03;;;;;;;19.08;67.95;102253.16;4811307;29;20054;-37
2021/07/19 00:18:45;;;;;;;14.57;4.93;;;;;;;19.08;67.81;102260.31;4816627;29;20058;-37
2021/07/19 00:21:11;;;;;;;8.77;5.18;;;;;;;19.05;67.70;102252.66;4814787;29;20478;-37
2021/07/19 00:23:38;;;;;;;9.93;5.45;;;;;;;19.05;67.98;102261.47;4806827;29;20135;-37
2021/07/19 00:26:04;;;;;;;10.32;4.90;;;;;;;19.05;67.55;102253.50;4811331;29;20146;-37
2021/07/19 00:28:31;;;;;;;10.85;5.13;;;;;;;19.01;67.87;102260.13;4821808;29;20141;-37
2021/07/19 00:30:59;;;;;;;11.57;5.22;;;;;;;18.99;68.14;102256.81;4832271;29;20141;-37
2021/07/19 00:33:25;;;;;;;10.05;5.32;;;;;;;19.00;68.44;102263.81;4815490;29;20169;-37
2021/07/19 00:35:52;;;;;;;10.75;5.65;;;;;;;18.95;68.54;102251.03;4819274;29;20925;-37
2021/07/19 00:38:18;;;;;;;12.70;5.63;;;;;;;18.91;68.31;102254.97;4821661;29;20148;-37
2021/07/19 00:40:45;;;;;;;10.13;5.40;;;;;;;18.91;68.32;102259.47;4809225;29;20058;-37
2021/07/19 00:43:12;;;;;;;13.27;5.18;;;;;;;18.89;68.19;102258.81;4824503;29;20109;-37
2021/07/19 00:45:38;;;;;;;13.35;5.72;;;;;;;18.86;68.40;102260.00;4825765;29;20097;-37
2021/07/19 00:48:06;;;;;;;9.82;5.75;;;;;;;18.81;68.86;102261.47;4819065;29;20088;-37
2021/07/19 00:50:36;;;;;;;13.70;6.35;;;;;;;18.77;68.81;102251.13;4812262;29;20058;-37
2021/07/19 00:53:07;;;;;;;11.60;5.35;;;;;;;18.72;69.10;102244.69;4808541;29;20116;-37
2021/07/19 00:55:39;;;;;;;11.15;5.53;;;;;;;18.71;69.17;102243.00;4815827;29;20058;-37
2021/07/19 00:58:08;;;;;;;9.80;5.40;;;;;;;18.67;69.43;102249.66;4818257;29;20145;-37
2021/07/19 01:00:37;;;;;;;11.68;5.47;;;;;;;18.57;70.12;102261.25;4828957;29;20068;-37
2021/07/19 01:03:04;;;;;;;9.30;5.65;;;;;;;18.56;69.95;102256.09;4818334;29;20069;-37
2021/07/19 01:05:33;;;;;;;13.45;5.47;;;;;;;18.49;70.57;102252.47;4818220;29;21006;-37
2021/07/19 01:08:02;;;;;;;12.75;5.93;;;;;;;18.38;71.07;102257.09;4812602;29;20090;-37
2021/07/19 01:10:29;;;;;;;10.88;5.95;;;;;;;18.34;70.98;102255.72;4818049;29;20685;-37
2021/07/19 01:12:57;;;;;;;11.38;5.90;;;;;;;18.26;71.39;102255.72;4811739;29;20144;-37
2021/07/19 01:15:29;;;;;;;11.95;5.85;;;;;;;18.18;72.35;102261.00;4815213;29;20085;-37
2021/07/19 01:17:56;;;;;;;13.40;6.13;;;;;;;18.13;72.21;102258.84;4811077;29;20188;-37
2021/07/19 01:20:29;;;;;;;11.93;5.57;;;;;;;18.07;72.62;102254.19;4811279;29;20145;-37
2021/07/19 01:23:07;;;;;;;11.02;5.53;;;;;;;18.04;72.55;102259.81;4822033;29;20148;-37
2021/07/19 01:26:05;;;;;;;10.02;5.70;;;;;;;17.98;72.81;102263.94;4803211;29;20792;-37
2021/07/19 01:28:41;;;;;;;13.95;6.40;;;;;;;17.97;73.34;102267.59;4816723;29;20161;-37
2021/07/19 01:31:16;;;;;;;9.85;5.97;;;;;;;17.98;72.86;102261.28;4815064;29;20145;-37
2021/07/19 01:33:47;;;;;;;8.70;5.85;;;;;;;18.01;72.60;102253.97;4817833;29;20050;-36
2021/07/19 01:36:18;;;;;;;10.27;5.85;;;;;;;17.97;72.78;102258.78;4813200;29;20101;-36
2021/07/19 01:38:45;;;;;;;10.13;5.70;;;;;;;17.91;72.90;102252.28;4828568;29;20093;-36
2021/07/19 01:41:12;;;;;;;12.70;5.78;;;;;;;17.90;72.84;102250.63;4809910;29;20156;-36
2021/07/19 01:43:40;;;;;;;12.82;5.85;;;;;;;17.83;73.28;102240.78;4813274;29;20490;-36
2021/07/19 01:46:07;;;;;;;8.13;5.47;;;;;;;17.80;73.25;102236.63;4807805;29;20498;-36
2021/07/19 01:48:35;;;;;;;12.85;5.88;;;;;;;17.71;74.10;102238.41;4812685;29;20290;-36
2021/07/19 01:51:03;;;;;;;9.07;5.53;;;;;;;17.69;74.06;102227.13;4817058;29;20154;-36
2021/07/19 01:53:30;;;;;;;14.73;5.82;;;;;;;17.65;74.42;102225.78;4812549;29;20144;-37
2021/07/19 01:55:58;;;;;;;12.60;5.90;;;;;;;17.65;73.88;102225.78;4812357;29;20096;-37
2021/07/19 01:58:26;;;;;;;12.70;5.85;;;;;;;17.61;74.31;102223.59;4817914;29;20050;-37
2021/07/19 02:00:54;;;;;;;9.67;6.23;;;;;;;17.52;75.05;102222.72;4819661;29;20137;-37
2021/07/19 02:03:21;;;;;;;13.82;6.47;;;;;;;17.49;75.16;102226.53;4810887;29;20058;-37
2021/07/19 02:05:49;;;;;;;14.33;7.00;;;;;;;17.40;75.34;102230.13;4818166;29;20492;-37
2021/07/19 02:08:16;;;;;;;13.65;5.75;;;;;;;17.39;75.64;102231.13;4814593;29;20286;-36
2021/07/19 02:10:47;;;;;;;14.35;6.35;;;;;;;17.32;75.19;102208.84;4807287;29;20056;-36
2021/07/19 02:13:15;;;;;;;10.50;5.88;;;;;;;17.33;75.43;102224.63;4816772;29;20786;-36
2021/07/19 02:15:43;;;;;;;11.18;6.07;;;;;;;17.33;74.97;102227.28;4811567;29;20149;-37
2021/07/19 02:18:12;;;;;;;13.25;6.63;;;;;;;17.28;75.65;102234.03;4814567;29;20115;-37
2021/07/19 02:20:40;;;;;;;12.68;6.22;;;;;;;17.23;75.93;102231.84;4808902;29;20145;-37
2021/07/19 02:23:08;;;;;;;12.32;6.25;;;;;;;17.19;76.05;102236.63;4811961;29;20058;-37
2021/07/19 02:25:35;;;;;;;14.10;6.60;;;;;;;17.16;76.20;102217.53;4807956;29;20061;-37
2021/07/19 02:28:02;;;;;;;15.88;6.43;;;;;;;17.21;76.00;102225.88;4817163;29;20077;-37
2021/07/19 02:30:30;;;;;;;12.90;6.45;;;;;;;17.18;75.86;102234.13;4814363;29;20081;-36
2021/07/19 02:32:58;;;;;;;14.23;6.40;;;;;;;17.13;76.74;102242.56;4818469;29;20709;-36
2021/07/19 02:35:26;;;;;;;12.15;6.85;;;;;;;17.08;77.03;102236.06;4818567;29;20156;-36
2021/07/19 02:37:56;;;;;;;12.70;6.38;;;;;;;17.05;76.93;102236.34;4809462;29;20149;-37
2021/07/19 02:40:24;;;;;;;15.15;6.50;;;;;;;17.04;76.78;102235.53;4814835;29;20065;-37
2021/07/19 02:43:01;;;;;;;9.88;5.82;;;;;;;17.03;76.63;102248.94;4818747;29;20173;-37
2021/07/19 02:45:31;;;;;;;10.85;6.28;;;;;;;16.96;77.47;102246.91;4824479;29;20062;-37
2021/07/19 02:48:00;;;;;;;11.27;5.95;;;;;;;16.92;77.45;102245.53;4812721;29;20464;-37
2021/07/19 02:50:29;;;;;;;14.40;6.47;;;;;;;16.97;77.41;102245.94;4811966;29;20154;-37
2021/07/19 02:53:00;;;;;;;;;;;;;;;17.01;77.28;102251.72;4813629;29;20097;-37
2021/07/19 02:55:32;;;;;;;15.55;6.35;;;;;;;17.01;76.22;102249.06;4810949;29;20024;-37
2021/07/19 02:58:00;;;;;;;14.02;5.93;;;;;;;16.97;76.91;102247.72;4813597;29;20520;-37
2021/07/19 03:00:28;;;;;;;12.52;6.28;;;;;;;16.95;76.85;102247.88;4811428;29;20055;-37
2021/07/19 03:02:57;;;;;;;9.52;6.75;;;;;;;16.94;76.59;102251.53;4813258;29;20137;-37
2021/07/19 03:05:28;;;;;;;9.70;5.85;;;;;;;16.91;76.59;102257.13;4806967;29;20704;-37
2021/07/19 03:07:57;;;;;;;12.45;5.63;;;;;;;16.89;76.98;102248.50;4816375;29;20093;-37
2021/07/19 03:10:26;;;;;;;10.90;6.38;;;;;;;16.91;76.49;102248.34;4816584;29;20141;-37
2021/07/19 03:12:58;;;;;;;12.20;5.70;;;;;;;16.92;76.01;102248.19;4809197;29;20059;-37
2021/07/19 03:15:31;;;;;;;12.05;5.80;;;;;;;16.92;75.81;102247.38;4815206;29;20133;-37
2021/07/19 03:18:04;;;;;;;13.23;5.88;;;;;;;16.89;76.41;102255.63;4802346;29;20058;-37
2021/07/19 03:20:36;;;;;;;12.13;6.20;;;;;;;16.83;76.99;102253.59;4811113;29;20165;-37
2021/07/19 03:23:04;;;;;;;13.45;6.07;;;;;;;16.77;77.13;102249.69;4807200;29;20149;-37
2021/07/19 03:25:32;;;;;;;10.32;6.05;;;;;;;16.72;77.33;102255.47;4816656;29;20050;-37
2021/07/19 03:28:00;;;;;;;12.65;6.28;;;;;;;16.70;77.70;102248.63;4809917;29;20077;-37
2021/07/19 03:30:27;;;;;;;15.30;6.90;;;;;;;16.66;78.10;102244.63;4816889;29;20145;-37
2021/07/19 03:32:54;;;;;;;11.90;5.87;;;;;;;16.66;77.88;102241.97;4807267;29;20050;-37
2021/07/19 03:35:26;;;;;;;10.95;6.20;;;;;;;16.65;78.19;102243.78;4819584;29;20407;-37
2021/07/19 03:37:53;;;;;;;12.27;5.95;;;;;;;16.62;78.42;102233.47;4819755;29;20158;-37
2021/07/19 03:40:24;;;;;;;13.60;5.78;;;;;;;16.65;77.77;102254.38;4815945;29;20137;-37
2021/07/19 03:42:54;;;;;;;9.57;6.10;;;;;;;16.57;78.86;102249.03;4823516;29;20058;-37
2021/07/19 03:45:22;;;;;;;11.05;6.60;;;;;;;16.53;78.90;102251.13;4815940;29;20089;-37
2021/07/19 03:47:49;;;;;;;10.90;5.95;;;;;;;16.52;79.17;102248.63;4822736;29;20153;-37
2021/07/19 03:50:16;;;;;;;12.95;6.65;;;;;;;16.51;79.25;102253.09;4816238;29;20154;-37
2021/07/19 03:52:43;;;;;;;13.60;6.40;;;;;;;16.51;79.30;102249.63;4814612;29;20090;-37
2021/07/19 03:55:14;;;;;;;12.88;5.80;;;;;;;16.54;79.23;102258.09;4816848;29;20213;-37
2021/07/19 03:57:41;;;;;;;11.45;5.65;;;;;;;16.51;78.72;102250.44;4811510;29;20923;-37
2021/07/19 04:00:14;;;;;;;10.25;5.72;;;;;;;16.52;78.75;102253.94;4812805;29;20082;-37
2021/07/19 04:02:44;;;;;;;10.00;6.38;;;;;;;16.54;79.68;102259.91;4808875;29;20841;-37
2021/07/19 04:05:15;;;;;;;14.10;6.78;;;;;;;16.59;79.57;102261.13;4816412;29;20070;-37
2021/07/19 04:07:45;;;;;;;11.57;5.85;;;;;;;16.61;79.37;102256.50;4813963;29;20111;-37
2021/07/19 04:10:14;;;;;;;12.93;6.18;;;;;;;16.69;79.56;102252.28;4815572;29;20101;-37
2021/07/19 04:12:46;;;;;;;11.30;5.90;;;;;;;16.66;79.08;102252.56;4806063;29;20058;-37
2021/07/19 04:15:13;;;;;;;12.02;6.18;;;;;;;16.69;79.13;102255.75;4818756;29;20058;-37
2021/07/19 04:17:40;;;;;;;12.55;6.38;;;;;;;16.69;78.85;102253.09;4831614;29;20089;-37
2021/07/19 04:20:09;;;;;;;11.27;6.05;;;;;;;16.74;79.00;102260.56;4813938;29;20149;-37
2021/07/19 04:22:36;;;;;;;12.45;5.60;;;;;;;16.77;78.85;102250.50;4828819;29;20481;-36
2021/07/19 04:25:08;;;;;;;11.57;5.80;;;;;;;16.84;78.30;102249.94;4819268;29;20062;-36
2021/07/19 04:27:41;;;;;;;11.35;6.45;;;;;;;16.87;77.83;102254.94;4825352;29;20054;-36
2021/07/19 04:30:08;;;;;;;8.98;5.38;;;;;;;16.78;78.60;102248.72;4823276;29;20080;-36
2021/07/19 04:32:38;;;;;;;11.25;6.13;;;;;;;16.74;79.32;102253.47;4815680;29;20500;-36
2021/07/19 04:35:12;;;;;;;8.85;5.43;;;;;;;16.77;79.24;102250.50;4813292;29;20077;-36
2021/07/19 04:37:39;;;;;;;12.55;6.18;;;;;;;16.78;79.17;102252.19;4818194;29;20088;-37
2021/07/19 04:40:06;;;;;;;14.82;5.55;;;;;;;16.84;79.48;102257.88;4813832;29;20145;-36
2021/07/19 04:42:33;;;;;;;10.85;6.47;;;;;;;16.80;79.40;102252.88;4813117;29;20065;-36
2021/07/19 04:44:59;;;;;;;11.88;5.70;;;;;;;16.93;79.34;102263.09;4819490;29;20093;-36
2021/07/19 04:47:25;;;;;;;11.35;5.63;;;;;;;16.97;78.48;102256.53;4813523;29;20177;-36
2021/07/19 04:49:52;;;;;;;12.57;6.15;;;;;;;16.95;79.59;102268.25;4819175;29;20166;-36
2021/07/19 04:52:18;;;;;;;13.40;6.03;;;;;;;17.00;80.39;102263.34;4808481;29;20145;-37
2021/07/19 04:54:46;;;;;;;12.43;5.57;;;;;;;17.12;79.09;102258.63;4815434;29;20141;-36
2021/07/19 04:57:15;;;;;;;13.23;6.47;;;;;;;17.11;79.91;102251.63;4818406;29;20508;-36
2021/07/19 04:59:45;;;;;;;16.20;6.40;;;;;;;17.25;78.90;102255.53;4813437;29;20567;-36
2021/07/19 05:02:15;;;;;;;14.52;6.25;;;;;;;17.36;78.47;102266.72;4817562;29;20141;-36
2021/07/19 05:04:45;;;;;;;11.52;5.75;;;;;;;17.49;78.47;102265.50;4811491;29;20061;-37
2021/07/19 05:07:15;;;;;;;11.63;5.88;;;;;;;17.58;77.98;102268.03;4812591;29;21130;-36
2021/07/19 05:09:43;;;;;;;11.95;5.75;;;;;;;17.66;77.50;102259.28;4813643;29;20090;-36
2021/07/19 05:12:12;;;;;;;12.18;5.78;;;;;;;17.72;77.77;102263.09;4818038;29;20062;-36
2021/07/19 05:14:39;;;;;;;12.13;6.25;;;;;;;17.82;77.17;102266.50;4813257;29;20173;-37
2021/07/19 05:17:09;;;;;;;9.40;4.93;;;;;;;17.90;75.75;102268.38;4818851;29;20569;-37
2021/07/19 05:19:40;;;;;;;13.43;5.55;;;;;;;17.96;76.44;102265.91;4814351;29;20062;-37
2021/07/19 05:22:14;;;;;;;13.18;5.75;;;;;;;18.02;75.61;102266.28;4816927;29;20148;-37
2021/07/19 05:24:41;;;;;;;13.23;5.95;;;;;;;18.11;74.83;102274.13;4818964;29;20081;-36
2021/07/19 05:27:09;;;;;;;11.60;5.75;;;;;;;18.22;74.14;102280.13;4812770;29;20258;-36
2021/07/19 05:29:37;;;;;;;14.20;6.05;;;;;;;18.31;73.21;102273.84;4819115;29;20050;-36
2021/07/19 05:32:05;;;;;;;14.23;6.13;;;;;;;18.37;73.50;102273.19;4820875;29;20476;-36
2021/07/19 05:34:32;;;;;;;12.80;5.60;;;;;;;18.42;73.52;102262.06;4808977;29;20333;-36
2021/07/19 05:37:00;;;;;;;16.05;6.50;;;;;;;18.43;73.43;102264.56;4810781;29;20077;-37
2021/07/19 05:39:27;;;;;;;10.57;5.00;;;;;;;18.49;72.26;102266.56;4818377;29;20064;-36
2021/07/19 05:41:54;;;;;;;12.88;6.00;;;;;;;18.52;71.75;102278.69;4817127;29;20149;-36
2021/07/19 05:44:21;;;;;;;13.88;5.38;;;;;;;18.53;71.57;102285.66;4812671;29;20145;-36
2021/07/19 05:46:47;;;;;;;12.88;6.47;;;;;;;18.49;72.29;102273.72;4815311;29;20089;-36
2021/07/19 05:49:14;;;;;;;10.75;5.63;;;;;;;18.57;72.10;102271.88;4811178;29;20058;-36
2021/07/19 05:51:41;;;;;;;12.43;6.07;;;;;;;18.62;71.78;102268.75;4817521;29;20145;-36
2021/07/19 05:54:07;;;;;;;12.07;5.60;;;;;;;18.69;71.72;102271.56;4812181;29;20150;-36
2021/07/19 05:56:34;;;;;;;13.00;5.72;;;;;;;18.72;72.13;102274.75;4816532;29;20145;-36
2021/07/19 05:59:02;;;;;;;17.00;7.07;;;;;;;18.80;72.28;102271.28;4824192;29;20145;-37
2021/07/19 06:01:29;;;;;;;11.30;6.57;;;;;;;18.78;72.98;102267.94;4808656;29;20085;-37
2021/07/19 06:03:55;;;;;;;11.48;5.68;;;;;;;18.87;72.78;102268.78;4817817;29;20068;-36
2021/07/19 06:06:22;;;;;;;15.55;7.35;;;;;;;18.98;72.71;102264.97;4811738;29;20493;-36
2021/07/19 06:08:48;;;;;;;13.52;6.55;;;;;;;19.10;72.03;102260.97;4817936;29;20435;-36
2021/07/19 06:11:15;;;;;;;11.38;6.65;;;;;;;19.24;72.10;102270.09;4810036;29;20105;-36
2021/07/19 06:13:41;;;;;;;14.45;6.93;;;;;;;19.32;71.91;102270.06;4813111;29;20081;-36
2021/07/19 06:16:09;;;;;;;14.50;7.22;;;;;;;19.37;71.70;102273.06;4812308;29;20541;-37
2021/07/19 06:18:36;;;;;;;12.90;7.50;;;;;;;19.51;70.98;102279.53;4817421;29;20058;-37
2021/07/19 06:21:03;;;;;;;15.93;7.40;;;;;;;19.38;70.82;102272.06;4816391;29;20840;-37
2021/07/19 06:23:29;;;;;;;13.30;7.07;;;;;;;19.52;70.27;102271.38;4810306;29;20145;-37
2021/07/19 06:25:56;;;;;;;16.58;7.30;;;;;;;19.61;69.98;102269.50;4815505;29;20144;-37
2021/07/19 06:28:22;;;;;;;11.40;7.05;;;;;;;19.63;69.77;102266.69;4821705;29;20502;-37
2021/07/19 06:30:53;;;;;;;15.40;7.50;;;;;;;19.70;69.96;102259.69;4822543;29;20543;-37
2021/07/19 06:33:20;;;;;;;13.82;7.35;;;;;;;19.74;69.59;102259.19;4812950;29;20160;-37
2021/07/19 06:35:47;;;;;;;15.02;7.70;;;;;;;19.73;69.28;102254.03;4817136;29;20149;-37
2021/07/19 06:38:13;;;;;;;17.50;8.45;;;;;;;19.84;69.59;102258.16;4824046;29;20085;-37
2021/07/19 06:40:40;;;;;;;16.70;8.40;;;;;;;19.83;70.02;102259.16;4812089;29;20064;-37
2021/07/19 06:43:06;;;;;;;14.27;7.13;;;;;;;19.96;70.13;102267.41;4816168;29;20061;-37
2021/07/19 06:45:33;;;;;;;17.88;7.25;;;;;;;19.93;70.21;102268.59;4812096;29;20555;-37
2021/07/19 06:47:59;;;;;;;14.35;6.75;;;;;;;20.00;70.26;102271.41;4817058;29;20153;-37
2021/07/19 06:50:26;;;;;;;16.98;7.03;;;;;;;20.00;70.23;102260.75;4811632;29;20105;-37
2021/07/19 06:52:53;;;;;;;16.10;6.10;;;;;;;20.04;69.86;102270.03;4813184;29;20058;-37
2021/07/19 06:55:19;;;;;;;18.85;7.82;;;;;;;20.11;69.87;102275.50;4812905;29;20093;-37
2021/07/19 06:57:46;;;;;;;16.13;6.50;;;;;;;20.17;69.47;102271.31;4812631;29;20062;-37
2021/07/19 07:00:13;;;;;;;14.50;6.63;;;;;;;20.26;69.55;102276.41;4817025;29;20147;-37
2021/07/19 07:02:40;;;;;;;12.80;6.20;;;;;;;20.33;69.41;102280.03;4808749;29;20157;-37
2021/07/19 07:05:07;;;;;;;17.25;7.30;;;;;;;20.39;69.81;102286.50;4817465;29;20077;-37
2021/07/19 07:07:34;;;;;;;15.98;7.00;;;;;;;20.41;69.61;102284.50;4805918;29;20145;-37
2021/07/19 07:10:02;;;;;;;14.57;6.57;;;;;;;20.46;69.76;102284.78;4815587;29;20081;-37
2021/07/19 07:12:28;;;;;;;14.45;7.47;;;;;;;20.49;69.82;102296.94;4806294;29;20149;-37
2021/07/19 07:14:55;;;;;;;19.27;7.03;;;;;;;20.50;69.29;102291.44;4821272;29;20054;-37
2021/07/19 07:17:21;;;;;;;13.68;6.70;;;;;;;20.51;68.99;102293.09;4825048;29;20058;-37
2021/07/19 07:19:51;;;;;;;17.63;7.18;;;;;;;20.57;69.14;102293.41;4810421;29;20164;-37
2021/07/19 07:22:18;;;;;;;12.68;6.57;;;;;;;20.64;69.38;102287.22;4814446;29;20073;-37
2021/07/19 07:24:44;;;;;;;11.45;6.40;;;;;;;20.74;69.07;102285.13;4809255;29;20085;-37
2021/07/19 07:27:12;;;;;;;13.68;6.55;;;;;;;20.86;68.14;102285.53;4815923;29;20495;-37
2021/07/19 07:29:39;;;;;;;16.23;6.65;;;;;;;20.97;68.19;102286.13;4810931;29;20123;-37
2021/07/19 07:32:07;;;;;;;17.40;6.63;;;;;;;21.00;67.01;102291.09;4820206;29;20479;-37
2021/07/19 07:34:35;;;;;;;15.43;7.95;;;;;;;21.05;66.92;102284.22;4804345;29;20464;-37
2021/07/19 07:37:02;;;;;;;19.20;8.15;;;;;;;21.07;66.57;102286.69;4822942;29;20058;-37
2021/07/19 07:39:28;;;;;;;16.75;6.63;;;;;;;21.09;66.78;102290.84;4815451;29;20065;-37
2021/07/19 07:41:54;;;;;;;19.60;7.15;;;;;;;21.15;66.02;102291.97;4811978;29;20176;-37
2021/07/19 07:44:22;;;;;;;14.50;6.75;;;;;;;21.25;65.82;102299.72;4819415;29;20748;-37
2021/07/19 07:46:49;;;;;;;13.40;6.53;;;;;;;21.25;64.83;102295.22;4811919;29;20145;-37
2021/07/19 07:49:16;;;;;;;12.88;6.63;;;;;;;21.30;62.61;102290.13;4814728;29;20136;-37
2021/07/19 07:51:43;;;;;;;13.60;7.00;;;;;;;21.36;63.00;102285.91;4812588;29;20418;-37
2021/07/19 07:54:09;;;;;;;13.60;6.53;;;;;;;21.37;63.19;102284.91;4817724;29;20233;-37
2021/07/19 07:56:35;;;;;;;11.85;6.22;;;;;;;21.49;63.21;102288.00;4815176;29;20137;-37
2021/07/19 07:59:22;;;;;;;15.50;7.05;;;;;;;21.62;62.09;102290.00;4816972;29;20054;-37
2021/07/19 08:01:48;;;;;;;13.43;6.45;;;;;;;21.63;61.30;102291.69;4815983;29;20578;-37
2021/07/19 08:04:15;;;;;;;12.55;6.63;;;;;;;21.70;61.88;102293.44;4814460;29;20061;-37
2021/07/19 08:06:43;;;;;;;14.45;6.97;;;;;;;21.73;61.83;102287.69;4820020;29;20051;-37
2021/07/19 08:09:10;;;;;;;11.63;7.05;;;;;;;21.78;60.42;102287.16;4811958;29;20115;-37
2021/07/19 08:11:36;;;;;;;15.88;6.82;;;;;;;21.83;59.98;102290.09;4825509;29;20092;-37
2021/07/19 08:14:03;;;;;;;16.63;7.78;;;;;;;21.92;59.17;102288.16;4823058;29;20106;-37
2021/07/19 08:16:29;;;;;;;11.18;6.18;;;;;;;22.08;58.38;102284.44;4815514;29;20054;-37
2021/07/19 08:18:56;;;;;;;17.00;6.85;;;;;;;22.22;57.72;102286.25;4816869;29;20058;-37
2021/07/19 08:21:22;;;;;;;11.60;6.55;;;;;;;22.35;58.26;102287.47;4816625;29;20833;-37
2021/07/19 08:23:49;;;;;;;14.05;6.60;;;;;;;22.45;57.63;102286.13;4818983;29;20058;-37
2021/07/19 08:26:15;;;;;;;11.25;6.10;;;;;;;22.46;56.91;102279.78;4813204;29;20150;-37
2021/07/19 08:28:42;;;;;;;12.73;6.28;;;;;;;22.57;57.19;102280.28;4813182;29;20141;-37
2021/07/19 08:31:08;;;;;;;17.58;7.55;;;;;;;22.54;56.65;102277.97;4809776;29;20172;-37
2021/07/19 08:33:35;;;;;;;15.10;6.93;;;;;;;22.53;57.30;102279.00;4819481;29;20097;-37
2021/07/19 08:36:01;;;;;;;12.90;7.03;;;;;;;22.53;57.02;102269.13;4813899;29;20896;-37
2021/07/19 08:38:28;;;;;;;12.95;7.50;;;;;;;22.50;55.85;102272.19;4818692;29;20455;-37
2021/07/19 08:40:54;;;;;;;11.85;7.13;;;;;;;22.54;55.67;102276.13;4816978;29;20169;-37
2021/07/19 08:43:37;;;;;;;13.90;7.70;;;;;;;22.43;55.96;102269.44;4809520;29;20065;-37
2021/07/19 08:46:03;;;;;;;14.25;7.22;;;;;;;22.41;55.38;102268.00;4818741;29;20092;-37
2021/07/19 08:48:30;;;;;;;12.25;7.32;;;;;;;22.38;56.49;102276.38;4813249;29;20187;-37
2021/07/19 08:50:59;;;;;;;12.52;7.88;;;;;;;22.34;54.72;102285.81;4807515;29;20148;-37
2021/07/19 08:53:32;;;;;;;12.02;7.50;;;;;;;22.26;54.46;102284.06;4811707;29;20046;-37
2021/07/19 08:55:59;;;;;;;13.10;7.63;;;;;;;22.22;55.06;102291.59;4812796;29;20055;-37
2021/07/19 08:58:26;;;;;;;13.65;8.15;;;;;;;22.19;55.78;102289.31;4818138;29;20115;-37
2021/07/19 09:00:55;;;;;;;11.77;7.50;;;;;;;22.18;55.75;102286.81;4810407;29;20058;-37
2021/07/19 09:03:22;;;;;;;13.57;8.05;;;;;;;22.24;55.90;102286.91;4818408;29;20059;-37
2021/07/19 09:05:51;;;;;;;14.35;8.70;;;;;;;22.21;55.83;102286.44;4812148;29;20054;-37
2021/07/19 09:08:17;;;;;;;14.75;7.43;;;;;;;22.19;55.96;102278.63;4813541;29;20062;-37
2021/07/19 09:10:44;;;;;;;15.13;7.45;;;;;;;22.24;56.47;102284.25;4806562;29;20050;-37
2021/07/19 09:13:21;;;;;;;14.50;8.18;;;;;;;22.30;57.35;102269.31;4806238;29;20058;-37
2021/07/19 09:15:57;;;;;;;13.40;7.57;;;;;;;22.26;55.74;102284.06;4810202;29;20054;-37
2021/07/19 09:18:25;;;;;;;14.45;8.32;;;;;;;22.35;56.02;102279.44;4817341;29;20119;-37
2021/07/19 09:20:52;;;;;;;12.70;7.88;;;;;;;22.51;56.52;102273.84;4816764;29;20118;-37
2021/07/19 09:23:29;;;;;;;14.40;7.40;;;;;;;22.58;56.17;102273.91;4806097;29;20791;-37
2021/07/19 09:25:56;;;;;;;16.38;7.93;;;;;;;22.60;56.01;102279.88;4816523;29;20161;-37
2021/07/19 09:28:29;;;;;;;12.48;7.60;;;;;;;22.55;54.80;102275.13;4810600;29;20100;-37
2021/07/19 09:31:05;;;;;;;12.73;7.28;;;;;;;22.60;56.15;102275.38;4815731;29;20480;-37
2021/07/19 09:33:35;;;;;;;15.98;7.90;;;;;;;22.67;55.94;102275.44;4798861;29;20061;-37
2021/07/19 09:36:02;;;;;;;16.92;8.00;;;;;;;22.73;56.17;102272.00;4821025;29;20101;-37
2021/07/19 09:38:30;;;;;;;15.65;8.27;;;;;;;22.83;54.90;102269.81;4828825;29;20066;-37
2021/07/19 09:40:59;;;;;;;15.57;8.65;;;;;;;22.90;55.10;102260.00;4826133;29;20062;-37
2021/07/19 09:43:28;;;;;;;13.20;8.10;;;;;;;23.08;55.03;102254.19;4814469;29;20157;-37
2021/07/19 09:46:08;;;;;;;11.95;7.38;;;;;;;23.02;53.64;102254.97;4815247;29;20062;-37
2021/07/19 09:48:36;;;;;;;13.55;7.97;;;;;;;23.18;54.23;102250.34;4811991;29;20069;-37
2021/07/19 09:51:04;;;;;;;13.20;7.80;;;;;;;23.26;53.88;102247.53;4806065;29;20062;-37
2021/07/19 09:53:33;;;;;;;11.00;7.50;;;;;;;23.17;53.30;102246.84;4816704;29;20574;-37
2021/07/19 09:56:15;;;;;;;15.43;8.23;;;;;;;23.13;53.06;102242.06;4810147;29;20519;-37
2021/07/19 09:58:47;;;;;;;14.68;8.23;;;;;;;22.95;53.82;102246.03;4816772;29;20064;-37
2021/07/19 10:01:28;;;;;;;17.60;8.25;;;;;;;22.90;54.68;102243.94;4806850;29;20476;-37
2021/07/19 10:04:22;;;;;;;16.40;8.02;;;;;;;22.90;54.96;102237.78;4811430;29;20945;-37
2021/07/19 10:06:50;;;;;;;11.25;7.68;;;;;;;22.92;54.80;102241.09;4810146;29;20157;-37
2021/07/19 10:09:18;;;;;;;13.10;7.93;;;;;;;22.85;54.83;102243.69;4814041;29;20058;-37
2021/07/19 10:11:56;;;;;;;11.07;7.72;;;;;;;22.78;54.89;102242.00;4809692;29;20737;-37
2021/07/19 10:14:31;;;;;;;13.52;8.10;;;;;;;22.80;55.98;102238.13;4818487;29;20054;-38
2021/07/19 10:16:59;;;;;;;13.25;7.68;;;;;;;22.76;54.99;102238.66;4816704;29;20097;-37
2021/07/19 10:19:27;;;;;;;11.43;7.88;;;;;;;23.25;56.04;102229.81;4813462;29;20085;-37
2021/07/19 10:21:54;;;;;;;13.90;7.65;;;;;;;23.57;54.36;102231.00;4815373;29;20154;-37
2021/07/19 10:24:21;;;;;;;11.27;7.82;;;;;;;23.92;53.54;102230.16;4809978;29;20169;-38
2021/07/19 10:26:49;;;;;;;14.30;7.90;;;;;;;24.25;50.75;102227.56;4806530;29;20498;-38
2021/07/19 10:29:16;;;;;;;15.93;8.30;;;;;;;24.70;51.91;102222.47;4806405;29;20065;-38
2021/07/19 10:31:44;;;;;;;15.00;8.60;;;;;;;24.88;50.43;102227.22;4808936;29;20081;-38
2021/07/19 10:34:16;;;;;;;13.18;7.55;;;;;;;25.00;50.80;102233.59;4808957;29;20066;-38
2021/07/19 10:36:49;;;;;;;14.27;8.63;;;;;;;24.70;48.95;102227.00;4815634;29;20621;-38
2021/07/19 10:39:30;;;;;;;13.60;8.18;;;;;;;24.68;50.09;102221.88;4812572;29;20076;-38
2021/07/19 10:42:11;;;;;;;14.13;8.45;;;;;;;24.71;49.81;102221.44;4812563;29;20050;-38
2021/07/19 10:44:40;;;;;;;12.80;8.85;;;;;;;25.14;49.76;102220.97;4810499;29;20265;-38
2021/07/19 10:47:18;;;;;;;14.90;8.27;;;;;;;25.23;50.18;102217.06;4809166;29;21113;-38
2021/07/19 10:49:59;;;;;;;14.50;8.30;;;;;;;25.29;50.11;102215.41;4813720;29;20097;-38
2021/07/19 10:52:37;;;;;;;16.42;9.18;;;;;;;25.16;48.81;102220.75;4807296;29;20179;-38
2021/07/19 10:55:11;;;;;;;16.17;9.93;;;;;;;25.03;48.45;102219.75;4814953;29;20057;-38
2021/07/19 10:57:44;;;;;;;13.73;9.23;;;;;;;24.78;49.28;102216.91;4806040;29;20524;-38
2021/07/19 11:00:16;;;;;;;14.82;8.85;;;;;;;24.67;50.43;102209.47;4819786;29;20125;-38
2021/07/19 11:02:43;;;;;;;13.63;9.10;;;;;;;24.62;50.31;102214.63;4813476;29;20046;-38
2021/07/19 11:05:13;;;;;;;14.95;9.15;;;;;;;24.39;49.95;102206.97;4814896;29;20838;-38
2021/07/19 11:07:44;;;;;;;13.38;8.68;;;;;;;24.31;51.58;102207.16;4809747;29;20051;-38
2021/07/19 11:10:20;;;;;;;15.45;9.32;;;;;;;24.25;50.80;102206.94;4814787;29;20585;-38
2021/07/19 11:12:56;;;;;;;14.07;8.88;;;;;;;24.27;51.70;102209.41;4809290;29;20193;-38
2021/07/19 11:15:34;;;;;;;12.57;8.40;;;;;;;24.38;52.08;102210.66;4810347;29;20917;-38
2021/07/19 11:18:27;;;;;;;16.48;8.95;;;;;;;24.53;52.70;102205.16;4815183;29;20085;-38
2021/07/19 11:20:59;;;;;;;13.60;8.73;;;;;;;24.70;51.91;102201.00;4810664;29;20062;-38
2021/07/19 11:23:35;;;;;;;19.40;9.25;;;;;;;24.65;51.40;102201.63;4802071;29;20058;-38
2021/07/19 11:26:05;;;;;;;12.70;8.40;;;;;;;24.76;52.30;102204.72;4804543;29;20069;-38